Time;durP1;ratioP1;P1;durP2;ratioP2;P2;SDS_P1;SDS_P2;PMS_P1;PMS_P2;Temp;Humidity;BMP_temperature;BMP_pressure;BME280_temperature;BME280_humidity;BME280_pressure;Samples;Min_cycle;Max_cycle;Signal;HPM_P1;HPM_P2
2022/12/06 00:01:45;;;;;;;17.63;9.63;;;5.50;99.90;;;;;;5083267;28;20481;-82
2022/12/06 00:04:15;;;;;;;23.88;12.20;;;5.50;99.90;;;;;;5084472;28;20330;-82
2022/12/06 00:06:46;;;;;;;23.30;10.82;;;5.50;99.90;;;;;;5101367;28;20315;-82
2022/12/06 00:09:24;;;;;;;19.25;10.13;;;5.50;99.90;;;;;;5099801;28;20111;-82
2022/12/06 00:11:51;;;;;;;19.05;9.82;;;5.50;99.90;;;;;;5102836;28;20226;-82
2022/12/06 00:14:17;;;;;;;18.85;9.63;;;5.50;99.90;;;;;;5066210;28;20112;-82
2022/12/06 00:16:43;;;;;;;17.33;10.50;;;5.50;99.90;;;;;;5098133;28;20047;-82
2022/12/06 00:19:12;;;;;;;18.10;10.35;;;5.50;99.90;;;;;;5102097;28;20397;-82
2022/12/06 00:21:38;;;;;;;16.38;9.82;;;5.50;99.90;;;;;;5064170;28;20043;-82
2022/12/06 00:24:07;;;;;;;18.10;10.55;;;5.50;99.90;;;;;;5086209;28;20051;-82
2022/12/06 00:26:38;;;;;;;27.67;13.68;;;5.50;99.90;;;;;;5098900;28;20044;-82
2022/12/06 00:29:06;;;;;;;19.05;10.65;;;5.50;99.90;;;;;;5081969;28;20130;-82
2022/12/06 00:31:33;;;;;;;18.45;10.45;;;5.50;99.90;;;;;;5097517;28;20031;-83
2022/12/06 00:34:00;;;;;;;22.38;11.30;;;5.50;99.90;;;;;;5095794;28;20081;-82
2022/12/06 00:36:30;;;;;;;19.38;10.10;;;5.50;99.90;;;;;;5083437;28;20497;-82
2022/12/06 00:38:59;;;;;;;18.95;9.75;;;5.40;99.90;;;;;;5080023;28;20053;-82
2022/12/06 00:41:25;;;;;;;16.25;8.45;;;5.50;99.90;;;;;;5081686;28;20050;-82
2022/12/06 00:43:51;;;;;;;24.80;11.20;;;5.40;99.90;;;;;;5117042;27;20044;-82
2022/12/06 00:46:23;;;;;;;29.25;13.43;;;5.40;99.90;;;;;;5087312;28;20052;-82
2022/12/06 00:48:53;;;;;;;26.60;10.70;;;5.40;99.90;;;;;;5098747;28;20440;-82
2022/12/06 00:51:20;;;;;;;22.02;10.63;;;5.40;99.90;;;;;;5103071;28;20079;-82
2022/12/06 00:53:46;;;;;;;20.25;10.15;;;5.40;99.90;;;;;;5102337;28;20046;-82
2022/12/06 00:56:13;;;;;;;24.35;10.65;;;5.40;99.90;;;;;;5099749;27;20050;-82
2022/12/06 00:58:43;;;;;;;36.00;11.80;;;5.40;99.90;;;;;;5100396;27;20028;-82
2022/12/06 01:01:13;;;;;;;18.98;9.10;;;5.40;99.90;;;;;;5082738;28;20409;-82
2022/12/06 01:03:39;;;;;;;;;;;5.40;99.90;;;;;;5081733;28;20039;-82
2022/12/06 01:06:08;;;;;;;16.55;9.20;;;5.30;99.90;;;;;;5084078;28;19954;-82
2022/12/06 01:08:36;;;;;;;13.70;8.13;;;5.40;99.90;;;;;;5078623;28;20151;-81
2022/12/06 01:11:02;;;;;;;18.13;9.27;;;5.40;99.90;;;;;;5076460;28;20538;-82
2022/12/06 01:13:29;;;;;;;24.60;9.82;;;5.50;99.90;;;;;;5083093;28;20055;-82
2022/12/06 01:15:55;;;;;;;30.27;11.07;;;5.40;99.90;;;;;;5097773;28;20034;-82
2022/12/06 01:18:21;;;;;;;21.75;10.25;;;5.30;99.90;;;;;;5079743;28;20051;-82
2022/12/06 01:20:50;;;;;;;26.70;11.13;;;5.40;99.90;;;;;;5067258;28;20040;-82
2022/12/06 01:23:19;;;;;;;27.58;10.35;;;5.40;99.90;;;;;;5094086;28;20043;-81
2022/12/06 01:25:50;;;;;;;20.55;9.38;;;5.40;99.90;;;;;;5098115;28;20048;-81
2022/12/06 01:28:16;;;;;;;33.00;10.30;;;5.40;99.90;;;;;;5086732;28;20279;-82
2022/12/06 01:30:41;;;;;;;24.35;10.38;;;5.40;99.90;;;;;;5080505;28;20035;-81
2022/12/06 01:33:07;;;;;;;21.83;9.85;;;5.40;99.90;;;;;;5079215;28;20052;-81
2022/12/06 01:35:37;;;;;;;15.63;8.18;;;5.30;99.90;;;;;;5079866;28;20051;-81
2022/12/06 01:38:03;;;;;;;23.88;10.38;;;5.40;99.90;;;;;;5077566;28;20556;-82
2022/12/06 01:40:43;;;;;;;17.80;8.73;;;5.30;99.90;;;;;;5059953;28;20438;-82
2022/12/06 01:43:39;;;;;;;10.30;6.00;;;5.40;99.90;;;;;;5074817;28;20112;-81
2022/12/06 01:46:23;;;;;;;11.02;5.80;;;5.30;99.90;;;;;;5095632;28;20170;-82
2022/12/06 01:48:57;;;;;;;10.60;4.63;;;5.30;99.90;;;;;;5096796;28;20051;-81
2022/12/06 01:51:23;;;;;;;9.18;4.43;;;5.30;99.90;;;;;;5078757;28;20046;-80
2022/12/06 01:53:51;;;;;;;6.10;3.40;;;5.30;99.90;;;;;;5082179;28;20383;-81
2022/12/06 01:56:18;;;;;;;7.75;3.88;;;5.20;99.90;;;;;;5094879;28;20047;-81
2022/12/06 01:58:46;;;;;;;7.85;4.28;;;5.20;99.90;;;;;;5079130;28;20047;-81
2022/12/06 02:01:12;;;;;;;10.10;3.95;;;5.20;99.90;;;;;;5093824;28;20059;-81
2022/12/06 02:03:38;;;;;;;11.30;4.22;;;5.20;99.90;;;;;;5097799;27;20043;-81
2022/12/06 02:06:07;;;;;;;8.00;4.07;;;5.20;99.90;;;;;;5097455;28;20597;-81
2022/12/06 02:08:33;;;;;;;10.77;4.30;;;5.20;99.90;;;;;;5080025;28;20063;-81
2022/12/06 02:11:01;;;;;;;8.65;4.20;;;5.10;99.90;;;;;;5080418;28;20032;-81
2022/12/06 02:13:28;;;;;;;9.27;4.00;;;5.10;99.90;;;;;;5081668;28;20092;-81
2022/12/06 02:16:21;;;;;;;11.63;4.10;;;5.10;99.90;;;;;;5108225;27;20656;-81
2022/12/06 02:19:17;;;;;;;9.65;3.97;;;5.10;99.90;;;;;;5095340;28;20031;-81
2022/12/06 02:22:12;;;;;;;9.30;4.80;;;5.10;99.90;;;;;;5101364;28;20654;-81
2022/12/06 02:24:47;;;;;;;8.07;3.80;;;5.10;99.90;;;;;;5067626;28;20358;-81
2022/12/06 02:27:31;;;;;;;14.10;5.80;;;5.10;99.90;;;;;;5095400;28;20092;-81
2022/12/06 02:30:17;;;;;;;8.80;4.88;;;5.10;99.90;;;;;;5082817;28;20043;-82
2022/12/06 02:32:58;;;;;;;8.98;4.63;;;5.10;99.90;;;;;;5073690;28;20102;-81
2022/12/06 02:35:31;;;;;;;10.15;4.88;;;5.10;99.90;;;;;;5087458;28;20047;-81
2022/12/06 02:38:31;;;;;;;9.10;4.70;;;5.10;99.90;;;;;;5079353;28;20043;-81
2022/12/06 02:41:02;;;;;;;11.93;5.32;;;5.10;99.90;;;;;;5096040;28;20040;-81
2022/12/06 02:43:36;;;;;;;9.20;4.68;;;5.10;99.90;;;;;;5082793;28;20379;-81
2022/12/06 02:46:04;;;;;;;15.70;6.15;;;5.00;99.90;;;;;;5093248;28;20063;-81
2022/12/06 02:48:33;;;;;;;11.13;5.22;;;5.00;99.90;;;;;;5083165;28;20046;-81
2022/12/06 02:51:07;;;;;;;9.50;4.32;;;5.00;99.90;;;;;;5093487;28;20422;-81
2022/12/06 02:53:38;;;;;;;11.63;5.15;;;5.00;99.90;;;;;;5080857;28;20432;-81
2022/12/06 02:56:05;;;;;;;11.07;4.93;;;5.00;99.90;;;;;;5092892;28;20077;-81
2022/12/06 02:58:35;;;;;;;13.68;5.45;;;5.00;99.90;;;;;;5100099;28;20108;-81
2022/12/06 03:01:23;;;;;;;13.70;6.30;;;5.00;99.90;;;;;;5080505;28;20051;-81
2022/12/06 03:04:44;;;;;;;14.75;6.60;;;5.00;99.90;;;;;;5096500;28;20047;-81
2022/12/06 03:07:32;;;;;;;10.85;5.70;;;5.00;99.90;;;;;;5056899;28;20063;-82
2022/12/06 03:10:04;;;;;;;12.30;6.30;;;5.00;99.90;;;;;;5089036;28;20386;-82
2022/12/06 03:12:55;;;;;;;14.95;7.72;;;5.00;99.90;;;;;;5071834;28;20495;-81
2022/12/06 03:15:39;;;;;;;13.38;7.95;;;5.00;99.90;;;;;;5077330;28;20054;-81
2022/12/06 03:18:18;;;;;;;25.05;9.07;;;5.00;99.90;;;;;;5089283;28;20044;-81
2022/12/06 03:21:14;;;;;;;16.88;7.38;;;5.00;99.90;;;;;;5095479;28;20055;-82
2022/12/06 03:23:44;;;;;;;17.80;9.18;;;5.00;99.90;;;;;;5084529;28;20130;-82
2022/12/06 03:26:14;;;;;;;17.90;8.77;;;5.00;99.90;;;;;;5088393;28;20593;-82
2022/12/06 03:28:41;;;;;;;16.13;8.57;;;5.00;99.90;;;;;;5074870;28;20043;-81
2022/12/06 03:31:11;;;;;;;25.90;9.85;;;4.90;99.90;;;;;;5065424;28;20048;-82
2022/12/06 03:33:48;;;;;;;25.27;9.45;;;4.90;99.90;;;;;;5095013;28;20055;-81
2022/12/06 03:36:16;;;;;;;19.00;8.30;;;4.90;99.90;;;;;;5099212;28;20132;-81
2022/12/06 03:38:53;;;;;;;15.27;7.63;;;4.90;99.90;;;;;;5080300;28;20083;-82
2022/12/06 03:41:23;;;;;;;16.85;7.53;;;4.90;99.90;;;;;;5082050;28;20118;-82
2022/12/06 03:43:49;;;;;;;19.80;8.63;;;4.90;99.90;;;;;;5099917;28;20039;-81
2022/12/06 03:46:18;;;;;;;19.95;8.52;;;4.90;99.90;;;;;;5066963;28;20528;-81
2022/12/06 03:48:48;;;;;;;18.90;9.15;;;4.90;99.90;;;;;;5081320;28;20051;-82
2022/12/06 03:51:22;;;;;;;24.85;9.70;;;4.90;99.90;;;;;;5098664;28;20116;-82
2022/12/06 03:53:55;;;;;;;19.08;8.30;;;4.90;99.90;;;;;;5098151;28;20101;-81
2022/12/06 03:56:25;;;;;;;19.17;8.98;;;4.90;99.90;;;;;;5109809;27;20124;-81
2022/12/06 03:58:51;;;;;;;12.70;7.15;;;4.90;99.90;;;;;;5097980;28;20722;-82
2022/12/06 04:01:17;;;;;;;51.35;30.23;;;4.80;99.90;;;;;;5062474;28;20052;-81
2022/12/06 04:03:46;;;;;;;67.35;36.03;;;4.90;99.90;;;;;;5079978;28;20043;-81
2022/12/06 04:06:12;;;;;;;32.75;21.02;;;4.90;99.90;;;;;;5108620;27;20100;-82
2022/12/06 04:08:38;;;;;;;30.73;20.80;;;4.80;99.90;;;;;;5097989;27;20091;-81
2022/12/06 04:11:04;;;;;;;28.45;16.00;;;4.90;99.90;;;;;;5080339;28;20108;-82
2022/12/06 04:13:31;;;;;;;14.43;7.82;;;4.80;99.90;;;;;;5097879;28;20539;-82
2022/12/06 04:15:58;;;;;;;17.77;8.07;;;4.80;99.90;;;;;;5084840;28;20095;-82
2022/12/06 04:18:25;;;;;;;12.88;7.22;;;4.80;99.90;;;;;;5081351;28;20119;-81
2022/12/06 04:23:45;;;;;;;11.98;6.50;;;4.70;99.90;;;;;;5095633;28;20044;-81
2022/12/06 04:26:14;;;;;;;13.77;6.40;;;4.70;99.90;;;;;;5096812;28;20131;-82
2022/12/06 04:39:38;;;;;;;15.02;7.03;;;4.50;99.90;;;;;;5093084;28;20036;-73
2022/12/06 04:44:48;;;;;;;16.42;7.30;;;4.40;99.90;;;;;;5080872;28;20537;-73
2022/12/06 04:47:15;;;;;;;18.30;6.85;;;4.40;99.90;;;;;;5081171;28;20039;-73
2022/12/06 04:49:40;;;;;;;12.07;5.13;;;4.40;99.90;;;;;;5071689;28;20538;-73
2022/12/06 04:52:07;;;;;;;6.63;4.10;;;4.30;99.90;;;;;;5079755;28;20039;-73
2022/12/06 04:54:34;;;;;;;20.23;6.28;;;4.30;99.90;;;;;;5097897;28;20046;-73
2022/12/06 04:57:00;;;;;;;19.30;7.25;;;4.20;99.90;;;;;;5081534;28;20044;-73
2022/12/06 04:59:27;;;;;;;21.67;7.38;;;4.20;99.90;;;;;;5080123;28;20142;-73
2022/12/06 05:01:53;;;;;;;22.80;7.53;;;4.10;99.90;;;;;;5095237;27;20055;-73
2022/12/06 05:04:20;;;;;;;22.05;7.47;;;4.10;99.90;;;;;;5087120;28;20065;-72
2022/12/06 05:06:46;;;;;;;14.48;6.22;;;4.10;99.90;;;;;;5081861;28;20342;-73
2022/12/06 05:09:13;;;;;;;13.43;5.05;;;4.10;99.90;;;;;;5091932;28;20047;-72
2022/12/06 05:11:39;;;;;;;18.23;6.75;;;4.00;99.90;;;;;;5098353;28;20491;-72
2022/12/06 05:14:05;;;;;;;17.55;6.18;;;4.00;99.90;;;;;;5079130;28;20130;-73
2022/12/06 05:16:31;;;;;;;13.75;6.00;;;3.90;99.90;;;;;;5077577;28;20035;-72
2022/12/06 05:18:57;;;;;;;15.05;6.30;;;3.90;99.90;;;;;;5076242;28;20050;-73
2022/12/06 05:21:23;;;;;;;14.75;5.57;;;3.90;99.90;;;;;;5091858;28;20039;-72
2022/12/06 05:23:53;;;;;;;16.23;6.40;;;4.00;99.90;;;;;;5078339;28;20608;-73
2022/12/06 05:26:21;;;;;;;21.00;7.25;;;4.00;99.90;;;;;;5076641;28;20314;-72
2022/12/06 05:28:47;;;;;;;19.65;7.80;;;4.00;99.90;;;;;;5096329;28;20048;-72
2022/12/06 05:31:13;;;;;;;14.40;6.90;;;4.00;99.90;;;;;;5077546;28;20043;-72
2022/12/06 05:33:39;;;;;;;14.50;6.30;;;4.00;99.90;;;;;;5078267;28;20124;-72
2022/12/06 05:36:17;;;;;;;17.98;7.40;;;4.00;99.90;;;;;;5091438;28;20138;-72
2022/12/06 05:38:47;;;;;;;13.77;6.05;;;4.00;99.90;;;;;;5081191;28;20055;-72
2022/12/06 05:41:13;;;;;;;16.10;7.43;;;4.00;99.90;;;;;;5077015;28;20085;-72
2022/12/06 05:43:39;;;;;;;18.10;7.28;;;4.00;99.90;;;;;;5062179;28;20043;-73
2022/12/06 05:46:05;;;;;;;14.70;6.80;;;4.00;99.90;;;;;;5062379;28;20049;-73
2022/12/06 05:48:31;;;;;;;10.82;6.15;;;4.00;99.90;;;;;;5095530;28;20048;-80
2022/12/06 05:50:57;;;;;;;13.50;6.28;;;3.90;99.90;;;;;;5077792;28;20683;-80
2022/12/06 05:53:23;;;;;;;17.23;7.82;;;3.90;99.90;;;;;;5081120;28;20075;-80
2022/12/06 05:55:49;;;;;;;15.30;6.75;;;3.90;99.90;;;;;;5077730;28;20074;-80
2022/12/06 05:58:16;;;;;;;15.02;7.35;;;3.90;99.90;;;;;;5077160;28;20056;-81
2022/12/06 06:00:46;;;;;;;18.70;8.23;;;3.90;99.90;;;;;;5078116;28;20044;-81
2022/12/06 06:03:12;;;;;;;17.15;8.23;;;3.80;99.90;;;;;;5079475;28;20123;-81
2022/12/06 06:05:48;;;;;;;16.40;8.68;;;3.80;99.90;;;;;;5078881;28;20044;-80
2022/12/06 06:08:14;;;;;;;16.77;8.50;;;3.90;99.90;;;;;;5095936;28;20063;-81
2022/12/06 06:10:40;;;;;;;12.48;7.63;;;3.90;99.90;;;;;;5078765;28;20043;-80
2022/12/06 06:13:06;;;;;;;12.07;6.93;;;3.90;99.90;;;;;;5062296;28;20036;-80
2022/12/06 06:15:31;;;;;;;13.77;8.23;;;3.90;99.90;;;;;;5061334;28;20040;-80
2022/12/06 06:17:57;;;;;;;21.10;8.68;;;3.90;99.90;;;;;;5078285;28;20043;-80
2022/12/06 06:20:23;;;;;;;13.43;6.53;;;3.90;99.90;;;;;;5060233;28;20549;-80
2022/12/06 06:22:49;;;;;;;19.08;8.82;;;3.90;99.90;;;;;;5043547;28;20517;-80
2022/12/06 06:25:14;;;;;;;28.23;10.00;;;3.80;99.90;;;;;;5068182;28;20067;-81
2022/12/06 06:27:40;;;;;;;23.52;9.55;;;3.80;99.90;;;;;;5076681;28;20047;-81
2022/12/06 06:30:11;;;;;;;15.32;7.97;;;3.80;99.90;;;;;;5059203;28;20085;-80
2022/12/06 06:32:37;;;;;;;30.10;10.20;;;3.80;99.90;;;;;;5085169;28;20341;-80
2022/12/06 06:35:04;;;;;;;31.00;10.73;;;3.70;99.90;;;;;;5092148;28;20039;-83
2022/12/06 06:37:31;;;;;;;27.65;9.90;;;3.70;99.90;;;;;;5094062;28;20618;-83
2022/12/06 06:40:01;;;;;;;27.30;11.02;;;3.60;99.90;;;;;;5072677;28;20612;-82
2022/12/06 06:42:27;;;;;;;26.00;10.18;;;3.60;99.90;;;;;;5091932;28;20510;-82
2022/12/06 06:44:54;;;;;;;27.45;10.70;;;3.60;99.90;;;;;;5093508;28;20035;-82
2022/12/06 06:47:21;;;;;;;17.83;7.90;;;3.50;99.90;;;;;;5041631;28;20513;-83
2022/12/06 06:49:46;;;;;;;22.50;9.48;;;3.50;99.90;;;;;;5085830;28;20135;-82
2022/12/06 06:52:12;;;;;;;28.73;11.45;;;3.60;99.90;;;;;;5073075;28;20042;-82
2022/12/06 06:54:38;;;;;;;31.73;11.53;;;3.40;99.90;;;;;;5092974;28;20048;-82
2022/12/06 06:57:04;;;;;;;30.58;12.10;;;3.40;99.90;;;;;;5073945;28;20345;-82
2022/12/06 06:59:29;;;;;;;32.33;12.27;;;3.30;99.90;;;;;;5074753;28;20050;-83
2022/12/06 07:01:56;;;;;;;29.15;10.38;;;3.20;99.90;;;;;;5060422;28;20071;-83
2022/12/06 07:04:22;;;;;;;25.00;11.02;;;3.20;99.90;;;;;;5088131;28;20127;-83
2022/12/06 07:06:47;;;;;;;24.98;10.95;;;3.10;99.90;;;;;;5088411;28;20059;-83
2022/12/06 07:09:13;;;;;;;34.60;14.27;;;3.10;99.90;;;;;;5093770;28;20791;-83
2022/12/06 07:11:39;;;;;;;29.45;12.98;;;3.30;99.90;;;;;;5078277;28;20145;-83
2022/12/06 07:14:05;;;;;;;31.88;13.48;;;3.20;99.90;;;;;;5098256;28;20056;-83
2022/12/06 07:16:31;;;;;;;37.67;14.10;;;3.20;99.90;;;;;;5093296;28;20447;-82
2022/12/06 07:18:56;;;;;;;38.10;14.10;;;3.30;99.90;;;;;;5088031;28;20181;-83
2022/12/06 07:21:22;;;;;;;18.75;10.18;;;3.10;99.90;;;;;;5095076;28;20051;-74
2022/12/06 07:23:48;;;;;;;46.58;14.90;;;3.10;99.90;;;;;;5066650;28;20040;-74
2022/12/06 07:26:17;;;;;;;41.85;14.75;;;3.00;99.90;;;;;;5081923;28;20799;-74
2022/12/06 07:28:44;;;;;;;29.48;12.52;;;3.00;99.90;;;;;;5109514;27;20047;-74
2022/12/06 07:31:22;;;;;;;14.75;9.25;;;2.90;99.90;;;;;;5079259;28;20044;-74
2022/12/06 07:33:51;;;;;;;12.00;8.35;;;2.90;99.90;;;;;;5083401;28;20035;-72
2022/12/06 07:36:18;;;;;;;28.63;11.82;;;2.80;99.90;;;;;;5107952;27;20044;-72
2022/12/06 07:38:50;;;;;;;36.42;13.40;;;2.70;99.90;;;;;;5099545;28;20059;-75
2022/12/06 07:46:48;;;;;;;12.30;8.43;;;2.60;99.90;;;;;;5097850;28;20039;-72
2022/12/06 07:49:15;;;;;;;13.10;8.77;;;2.60;99.90;;;;;;5096844;28;20048;-72
2022/12/06 07:51:42;;;;;;;48.13;15.05;;;2.50;99.90;;;;;;5083590;28;20067;-72
2022/12/06 07:54:08;;;;;;;12.57;9.77;;;2.50;99.90;;;;;;5081976;28;20609;-71
2022/12/06 07:56:34;;;;;;;31.30;15.30;;;2.50;99.90;;;;;;5080078;28;20035;-72
2022/12/06 07:59:01;;;;;;;14.15;9.73;;;2.50;99.90;;;;;;5063654;28;20127;-72
2022/12/06 08:01:27;;;;;;;11.40;7.93;;;2.50;99.90;;;;;;5082330;28;20104;-80
2022/12/06 08:03:54;;;;;;;32.30;13.73;;;2.50;99.90;;;;;;5100745;27;20054;-81
2022/12/06 08:06:21;;;;;;;39.53;16.03;;;2.40;99.90;;;;;;5065351;27;20043;-80
2022/12/06 08:08:47;;;;;;;10.80;8.55;;;2.50;99.90;;;;;;5090567;28;20058;-81
2022/12/06 08:11:13;;;;;;;10.67;8.33;;;2.50;99.90;;;;;;5099916;28;20048;-80
2022/12/06 08:13:39;;;;;;;13.07;8.57;;;2.50;99.90;;;;;;5083737;28;20055;-81
2022/12/06 08:16:07;;;;;;;34.53;14.13;;;2.50;99.90;;;;;;5083120;28;20051;-81
2022/12/06 08:18:33;;;;;;;9.70;7.40;;;2.60;99.90;;;;;;5085422;28;20118;-81
2022/12/06 08:20:59;;;;;;;17.97;11.17;;;2.60;99.90;;;;;;5118293;27;20451;-81
2022/12/06 08:23:25;;;;;;;22.02;11.73;;;2.60;99.90;;;;;;5098923;28;20046;-81
2022/12/06 08:25:58;;;;;;;34.50;16.40;;;2.70;99.90;;;;;;5099133;28;20489;-81
2022/12/06 08:28:24;;;;;;;19.40;11.27;;;2.70;99.90;;;;;;5077152;28;20052;-81
2022/12/06 08:30:51;;;;;;;27.17;12.82;;;2.80;99.90;;;;;;5085826;28;20040;-81
2022/12/06 08:33:16;;;;;;;17.67;10.68;;;2.80;99.90;;;;;;5085531;28;20071;-81
2022/12/06 08:35:42;;;;;;;26.87;13.10;;;2.90;99.90;;;;;;5068982;28;20460;-81
2022/12/06 08:38:08;;;;;;;19.85;11.85;;;2.90;99.90;;;;;;5050029;28;20040;-81
2022/12/06 08:40:34;;;;;;;18.57;11.47;;;3.00;99.90;;;;;;5096224;28;21102;-81
2022/12/06 08:43:00;;;;;;;23.30;13.70;;;3.10;99.90;;;;;;5084980;28;20038;-81
2022/12/06 08:45:25;;;;;;;16.95;10.50;;;3.10;99.90;;;;;;5068897;28;20032;-81
2022/12/06 08:47:51;;;;;;;20.52;11.73;;;3.20;99.90;;;;;;5101911;28;20062;-81
2022/12/06 08:50:17;;;;;;;25.00;12.80;;;3.30;99.90;;;;;;5100998;28;20122;-81
2022/12/06 08:52:43;;;;;;;19.02;11.23;;;3.40;99.90;;;;;;5064923;28;20044;-81
2022/12/06 08:55:09;;;;;;;20.35;11.52;;;3.50;99.90;;;;;;5070501;28;20383;-81
2022/12/06 08:57:34;;;;;;;18.30;11.32;;;3.60;99.90;;;;;;5101295;28;20043;-81
2022/12/06 09:00:00;;;;;;;17.92;11.55;;;3.70;99.90;;;;;;5068166;28;20074;-81
2022/12/06 09:02:26;;;;;;;16.20;9.98;;;3.80;99.90;;;;;;5100207;28;20398;-81
2022/12/06 09:04:52;;;;;;;17.35;10.07;;;3.90;99.90;;;;;;5071049;28;20044;-81
2022/12/06 09:07:18;;;;;;;14.98;10.35;;;4.00;99.90;;;;;;5083309;28;20042;-81
2022/12/06 09:09:47;;;;;;;12.70;9.45;;;4.20;99.90;;;;;;5085067;28;20040;-81
2022/12/06 09:12:14;;;;;;;13.68;9.25;;;4.20;99.90;;;;;;5085824;28;20444;-81
2022/12/06 09:14:43;;;;;;;20.15;11.27;;;4.20;99.90;;;;;;5065874;28;20505;-81
2022/12/06 09:17:08;;;;;;;14.05;8.95;;;4.20;99.90;;;;;;5082109;28;20059;-81
2022/12/06 09:19:34;;;;;;;14.77;9.50;;;4.30;99.90;;;;;;5085054;28;20051;-81
2022/12/06 09:22:00;;;;;;;13.82;9.85;;;4.30;99.90;;;;;;5079678;28;20572;-71
2022/12/06 09:24:26;;;;;;;13.50;8.45;;;4.30;99.90;;;;;;5117609;27;20058;-72
2022/12/06 09:26:52;;;;;;;14.98;10.35;;;4.30;99.90;;;;;;5082410;28;20055;-81
2022/12/06 09:29:21;;;;;;;14.40;9.07;;;4.30;99.90;;;;;;5068297;28;20082;-72
2022/12/06 09:31:47;;;;;;;10.77;7.90;;;4.40;99.90;;;;;;5081834;28;20044;-72
2022/12/06 09:34:14;;;;;;;12.45;7.85;;;4.40;99.90;;;;;;5067648;28;20051;-72
2022/12/06 09:36:49;;;;;;;11.85;7.57;;;4.50;99.90;;;;;;5100720;28;20132;-81
2022/12/06 09:39:23;;;;;;;11.27;6.90;;;4.50;99.90;;;;;;5099876;28;20083;-81
2022/12/06 09:42:27;;;;;;;11.35;7.15;;;4.50;99.90;;;;;;5082392;28;20039;-81
2022/12/06 09:45:08;;;;;;;10.68;7.30;;;4.50;99.90;;;;;;5064820;28;20497;-81
2022/12/06 09:47:52;;;;;;;9.25;6.57;;;4.60;99.90;;;;;;5097007;28;20074;-81
2022/12/06 09:50:38;;;;;;;10.45;7.22;;;4.60;99.90;;;;;;5093389;28;20154;-81
2022/12/06 09:53:37;;;;;;;8.52;5.88;;;4.60;99.90;;;;;;5100920;28;20075;-81
2022/12/06 09:56:13;;;;;;;11.05;6.50;;;4.60;99.90;;;;;;5074381;28;20055;-81
2022/12/06 09:59:06;;;;;;;12.90;6.82;;;4.60;99.90;;;;;;5095665;28;20082;-81
2022/12/06 10:01:57;;;;;;;12.77;7.45;;;4.60;99.90;;;;;;5084181;28;20066;-81
2022/12/06 10:05:04;;;;;;;12.18;6.10;;;4.70;99.90;;;;;;5091335;27;20047;-81
2022/12/06 10:07:30;;;;;;;10.02;5.63;;;4.70;99.90;;;;;;5067760;28;20078;-81
2022/12/06 10:10:24;;;;;;;8.63;5.60;;;4.80;99.90;;;;;;5075602;28;20811;-81
2022/12/06 10:13:01;;;;;;;8.68;4.90;;;4.80;99.90;;;;;;5091159;28;20043;-81
2022/12/06 10:15:50;;;;;;;8.95;5.20;;;4.70;99.90;;;;;;5094369;28;20502;-81
2022/12/06 10:18:16;;;;;;;9.45;5.50;;;4.80;99.90;;;;;;5080238;28;20498;-81
2022/12/06 10:21:09;;;;;;;7.63;4.72;;;4.70;99.90;;;;;;5084017;28;20049;-81
2022/12/06 10:23:43;;;;;;;9.45;5.72;;;4.60;99.90;;;;;;5097065;28;20051;-81
2022/12/06 10:26:39;;;;;;;7.57;4.63;;;4.60;99.90;;;;;;5091571;28;20062;-81
2022/12/06 10:29:18;;;;;;;7.95;5.40;;;4.70;99.90;;;;;;5077026;28;20087;-81
2022/12/06 10:32:22;;;;;;;9.00;5.15;;;4.70;99.90;;;;;;5078804;28;20055;-80
2022/12/06 10:35:10;;;;;;;8.75;6.20;;;4.70;99.90;;;;;;5094561;28;20580;-81
2022/12/06 10:37:55;;;;;;;8.90;6.03;;;4.80;99.90;;;;;;5091922;28;20052;-81
2022/12/06 10:40:47;;;;;;;8.10;5.40;;;4.80;99.90;;;;;;5093072;28;20138;-81
2022/12/06 10:43:31;;;;;;;9.80;5.43;;;4.90;99.90;;;;;;5077407;28;20040;-81
2022/12/06 10:49:15;;;;;;;8.32;5.25;;;5.00;99.90;;;;;;5094802;28;20047;-81
2022/12/06 10:51:47;;;;;;;9.85;5.68;;;5.10;99.90;;;;;;5074894;28;20050;-82
2022/12/06 10:54:37;;;;;;;8.90;6.32;;;5.20;99.90;;;;;;5098518;28;20543;-81
2022/12/06 10:57:26;;;;;;;6.85;4.70;;;5.30;99.90;;;;;;5085838;28;20626;-81
2022/12/06 11:00:13;;;;;;;6.80;4.70;;;5.30;99.90;;;;;;5083869;28;20521;-81
2022/12/06 11:03:08;;;;;;;7.32;5.13;;;5.40;99.90;;;;;;5096468;28;20104;-81
2022/12/06 11:05:40;;;;;;;10.88;5.18;;;5.40;99.90;;;;;;5043718;28;20499;-81
2022/12/06 11:08:14;;;;;;;7.32;4.57;;;5.40;99.90;;;;;;5094790;28;20047;-81
2022/12/06 11:10:43;;;;;;;6.82;4.07;;;5.50;99.90;;;;;;5081469;28;20040;-81
2022/12/06 11:13:12;;;;;;;7.17;4.37;;;5.60;99.90;;;;;;5079715;28;20514;-81
2022/12/06 11:15:41;;;;;;;6.00;3.50;;;5.60;99.90;;;;;;5079710;28;20146;-81
2022/12/06 11:18:16;;;;;;;4.95;3.80;;;5.60;99.90;;;;;;5079940;28;20047;-82
2022/12/06 11:20:55;;;;;;;8.10;3.75;;;5.70;99.90;;;;;;5077521;28;20135;-82
2022/12/06 11:23:53;;;;;;;7.35;4.63;;;5.70;99.90;;;;;;5081132;28;20046;-82
2022/12/06 11:26:37;;;;;;;6.45;4.45;;;5.70;99.90;;;;;;5095991;28;20054;-82
2022/12/06 11:29:08;;;;;;;8.68;4.00;;;5.80;99.90;;;;;;5098550;28;20549;-82
2022/12/06 11:31:44;;;;;;;6.90;4.22;;;5.80;99.90;;;;;;5084525;28;20520;-82
2022/12/06 11:34:16;;;;;;;7.45;4.03;;;5.90;99.90;;;;;;5098242;28;20051;-82
2022/12/06 11:36:44;;;;;;;7.90;4.13;;;5.90;99.90;;;;;;5092571;28;20387;-81
2022/12/06 11:39:13;;;;;;;6.43;3.90;;;5.90;99.90;;;;;;5091897;28;20051;-81
2022/12/06 11:41:40;;;;;;;6.13;3.60;;;5.90;99.90;;;;;;5096469;28;20170;-82
2022/12/06 11:44:11;;;;;;;6.35;4.20;;;6.00;99.90;;;;;;5077059;28;20457;-81
2022/12/06 11:46:38;;;;;;;5.45;3.90;;;6.00;99.90;;;;;;5079450;28;20102;-81
2022/12/06 11:49:23;;;;;;;8.43;4.15;;;6.00;99.90;;;;;;5091004;28;20616;-81
2022/12/06 11:51:51;;;;;;;7.45;3.70;;;6.00;99.90;;;;;;5118183;27;20044;-81
2022/12/06 11:54:38;;;;;;;6.43;3.70;;;6.00;99.90;;;;;;5098852;28;20036;-81
2022/12/06 11:57:22;;;;;;;7.80;4.10;;;6.10;99.90;;;;;;5097842;28;20796;-81
2022/12/06 12:00:20;;;;;;;6.10;3.15;;;6.10;99.90;;;;;;5103729;28;20035;-81
2022/12/06 12:02:48;;;;;;;4.65;2.90;;;6.10;99.90;;;;;;5083751;28;20094;-82
2022/12/06 12:05:24;;;;;;;6.88;3.47;;;6.10;99.90;;;;;;5080113;28;20083;-82
2022/12/06 12:08:29;;;;;;;7.25;3.10;;;6.20;99.90;;;;;;5102216;28;20158;-82
2022/12/06 12:11:00;;;;;;;6.57;3.50;;;6.20;99.90;;;;;;5087330;28;20096;-82
2022/12/06 12:13:47;;;;;;;6.88;3.22;;;6.20;99.90;;;;;;5082111;28;20342;-82
2022/12/06 12:16:19;;;;;;;7.70;3.38;;;6.20;99.90;;;;;;5099600;27;20048;-82
2022/12/06 12:18:56;;;;;;;6.22;3.67;;;6.30;99.90;;;;;;5101160;28;20122;-82
2022/12/06 12:21:31;;;;;;;5.93;3.28;;;6.30;99.90;;;;;;5099765;28;20069;-82
2022/12/06 12:23:57;;;;;;;7.50;2.92;;;6.30;99.90;;;;;;5099831;28;20112;-82
2022/12/06 12:26:35;;;;;;;6.05;3.20;;;6.30;99.90;;;;;;5083816;28;20047;-82
2022/12/06 12:29:06;;;;;;;7.50;3.15;;;6.40;99.90;;;;;;5083492;28;20071;-83
2022/12/06 12:31:44;;;;;;;6.25;2.88;;;6.40;99.90;;;;;;5081061;28;20055;-83
2022/12/06 12:34:19;;;;;;;5.68;3.10;;;6.40;99.90;;;;;;5096157;28;20736;-83
2022/12/06 12:36:59;;;;;;;6.93;2.83;;;6.40;99.90;;;;;;5082545;28;20140;-82
2022/12/06 12:39:52;;;;;;;6.32;2.97;;;6.30;99.90;;;;;;5092113;28;20060;-83
2022/12/06 12:42:35;;;;;;;6.25;3.20;;;6.30;99.90;;;;;;5084136;28;20162;-80
2022/12/06 12:45:04;;;;;;;3.63;2.60;;;6.30;99.90;;;;;;5093610;28;20047;-80
2022/12/06 12:47:31;;;;;;;5.28;2.20;;;6.30;99.90;;;;;;5093004;28;20040;-80
2022/12/06 12:50:12;;;;;;;5.80;2.60;;;6.20;99.90;;;;;;5089599;28;20514;-80
2022/12/06 12:52:40;;;;;;;6.22;2.80;;;6.20;99.90;;;;;;5091259;28;20056;-80
2022/12/06 12:55:11;;;;;;;5.55;3.00;;;6.20;99.90;;;;;;5090534;28;20490;-79
2022/12/06 12:57:38;;;;;;;5.88;2.58;;;6.20;99.90;;;;;;5081392;27;20051;-80
2022/12/06 13:00:05;;;;;;;5.05;2.70;;;6.20;99.90;;;;;;5081877;28;20044;-79
2022/12/06 13:02:34;;;;;;;5.45;2.88;;;6.20;99.90;;;;;;5091012;28;20115;-79
2022/12/06 13:05:17;;;;;;;4.57;2.60;;;6.30;99.90;;;;;;5094729;28;20433;-79
2022/12/06 13:07:43;;;;;;;6.57;2.80;;;6.30;99.90;;;;;;5089337;28;20529;-80
2022/12/06 13:10:30;;;;;;;6.78;2.78;;;6.30;99.90;;;;;;5066709;28;20048;-80
2022/12/06 13:13:03;;;;;;;5.55;2.67;;;6.40;99.90;;;;;;5091464;28;20044;-80
2022/12/06 13:15:53;;;;;;;7.55;2.65;;;6.40;99.90;;;;;;5088069;28;20047;-80
2022/12/06 13:18:30;;;;;;;;;;;6.40;99.90;;;;;;5096780;28;20315;-80
2022/12/06 13:21:01;;;;;;;6.85;3.63;;;6.40;99.90;;;;;;5095619;27;19926;-80
2022/12/06 13:23:33;;;;;;;6.07;2.95;;;6.40;99.90;;;;;;5089976;28;20063;-80
2022/12/06 13:26:24;;;;;;;5.90;2.70;;;6.40;99.90;;;;;;5092010;28;20575;-80
2022/12/06 13:28:56;;;;;;;8.43;2.70;;;6.40;99.90;;;;;;5078093;28;20047;-80
2022/12/06 13:31:27;;;;;;;7.13;3.08;;;6.40;99.90;;;;;;5091171;28;20104;-80
2022/12/06 13:33:59;;;;;;;7.90;2.78;;;6.30;99.90;;;;;;5091279;28;20146;-80
2022/12/06 13:36:26;;;;;;;7.05;2.85;;;6.30;99.90;;;;;;5089366;28;20537;-80
2022/12/06 13:38:54;;;;;;;8.10;2.97;;;6.20;99.90;;;;;;5070109;28;20043;-79